sensor_id;sensor_type;location;lat;lon;timestamp;temperature;humidity
46117;DHT22;32591;48.102;11.772;2023-07-13T00:02:15;18.80;99.90
46117;DHT22;32591;48.102;11.772;2023-07-13T00:04:43;18.70;99.90
46117;DHT22;32591;48.102;11.772;2023-07-13T00:07:10;18.70;99.90
46117;DHT22;32591;48.102;11.772;2023-07-13T00:09:40;18.70;99.90
46117;DHT22;32591;48.102;11.772;2023-07-13T00:12:23;18.70;99.90
46117;DHT22;32591;48.102;11.772;2023-07-13T00:14:51;18.60;99.90
46117;DHT22;32591;48.102;11.772;2023-07-13T00:17:18;18.60;99.90
46117;DHT22;32591;48.102;11.772;2023-07-13T00:19:46;18.50;99.90
46117;DHT22;32591;48.102;11.772;2023-07-13T00:22:13;18.50;99.90
46117;DHT22;32591;48.102;11.772;2023-07-13T00:24:40;18.50;99.90
46117;DHT22;32591;48.102;11.772;2023-07-13T00:27:08;18.50;99.90
46117;DHT22;32591;48.102;11.772;2023-07-13T00:29:35;18.50;99.90
46117;DHT22;32591;48.102;11.772;2023-07-13T00:32:03;18.40;99.90
46117;DHT22;32591;48.102;11.772;2023-07-13T00:34:31;18.40;99.90
46117;DHT22;32591;48.102;11.772;2023-07-13T00:37:00;18.40;99.90
46117;DHT22;32591;48.102;11.772;2023-07-13T00:39:27;18.50;99.90
46117;DHT22;32591;48.102;11.772;2023-07-13T00:41:54;18.40;99.90
46117;DHT22;32591;48.102;11.772;2023-07-13T00:44:21;18.50;99.90
46117;DHT22;32591;48.102;11.772;2023-07-13T00:46:49;18.50;99.90
46117;DHT22;32591;48.102;11.772;2023-07-13T00:49:19;18.60;99.90
46117;DHT22;32591;48.102;11.772;2023-07-13T00:51:49;18.70;99.90
46117;DHT22;32591;48.102;11.772;2023-07-13T00:54:26;18.60;99.90
46117;DHT22;32591;48.102;11.772;2023-07-13T00:56:57;18.60;99.90
46117;DHT22;32591;48.102;11.772;2023-07-13T00:59:25;18.60;99.90
46117;DHT22;32591;48.102;11.772;2023-07-13T01:01:53;18.70;99.90
46117;DHT22;32591;48.102;11.772;2023-07-13T01:04:22;18.70;99.90
46117;DHT22;32591;48.102;11.772;2023-07-13T01:06:50;18.70;99.90
46117;DHT22;32591;48.102;11.772;2023-07-13T01:09:17;18.80;99.90
46117;DHT22;32591;48.102;11.772;2023-07-13T01:11:46;18.80;99.90
46117;DHT22;32591;48.102;11.772;2023-07-13T01:14:14;18.80;99.90
46117;DHT22;32591;48.102;11.772;2023-07-13T01:16:44;18.90;99.90
46117;DHT22;32591;48.102;11.772;2023-07-13T01:19:20;18.90;99.90
46117;DHT22;32591;48.102;11.772;2023-07-13T01:22:04;18.80;99.90
46117;DHT22;32591;48.102;11.772;2023-07-13T01:24:34;18.80;99.90
46117;DHT22;32591;48.102;11.772;2023-07-13T01:27:02;18.80;99.90
46117;DHT22;32591;48.102;11.772;2023-07-13T01:29:30;18.80;99.90
46117;DHT22;32591;48.102;11.772;2023-07-13T01:31:58;18.80;99.90
46117;DHT22;32591;48.102;11.772;2023-07-13T01:34:25;18.90;99.90
46117;DHT22;32591;48.102;11.772;2023-07-13T01:36:53;18.90;99.90
46117;DHT22;32591;48.102;11.772;2023-07-13T01:39:22;18.90;99.90
46117;DHT22;32591;48.102;11.772;2023-07-13T01:41:50;18.90;99.90
46117;DHT22;32591;48.102;11.772;2023-07-13T01:44:17;18.80;99.90
46117;DHT22;32591;48.102;11.772;2023-07-13T01:46:44;18.90;99.90
46117;DHT22;32591;48.102;11.772;2023-07-13T01:49:11;18.90;99.90
46117;DHT22;32591;48.102;11.772;2023-07-13T01:51:38;18.90;99.90
46117;DHT22;32591;48.102;11.772;2023-07-13T01:54:05;18.90;99.90
46117;DHT22;32591;48.102;11.772;2023-07-13T01:56:33;18.90;99.90
46117;DHT22;32591;48.102;11.772;2023-07-13T01:59:00;18.90;99.90
46117;DHT22;32591;48.102;11.772;2023-07-13T02:01:27;18.90;99.90
46117;DHT22;32591;48.102;11.772;2023-07-13T02:03:54;18.90;99.90
46117;DHT22;32591;48.102;11.772;2023-07-13T02:06:21;18.90;99.90
46117;DHT22;32591;48.102;11.772;2023-07-13T02:08:48;18.90;99.90
46117;DHT22;32591;48.102;11.772;2023-07-13T02:11:15;18.90;99.90
46117;DHT22;32591;48.102;11.772;2023-07-13T02:13:44;18.80;99.90
46117;DHT22;32591;48.102;11.772;2023-07-13T02:16:11;18.80;99.90
46117;DHT22;32591;48.102;11.772;2023-07-13T02:18:38;18.80;99.90
46117;DHT22;32591;48.102;11.772;2023-07-13T02:21:05;18.80;99.90
46117;DHT22;32591;48.102;11.772;2023-07-13T02:23:32;18.80;99.90
46117;DHT22;32591;48.102;11.772;2023-07-13T02:26:01;18.70;99.90
46117;DHT22;32591;48.102;11.772;2023-07-13T02:28:30;18.50;99.90
46117;DHT22;32591;48.102;11.772;2023-07-13T02:31:06;18.50;99.90
46117;DHT22;32591;48.102;11.772;2023-07-13T02:33:34;18.40;99.90
46117;DHT22;32591;48.102;11.772;2023-07-13T02:36:01;18.30;99.90
46117;DHT22;32591;48.102;11.772;2023-07-13T02:38:30;18.10;99.90
46117;DHT22;32591;48.102;11.772;2023-07-13T02:40:59;18.20;99.90
46117;DHT22;32591;48.102;11.772;2023-07-13T02:43:27;18.30;99.90
46117;DHT22;32591;48.102;11.772;2023-07-13T02:45:54;18.40;99.90
46117;DHT22;32591;48.102;11.772;2023-07-13T02:48:22;18.60;99.90
46117;DHT22;32591;48.102;11.772;2023-07-13T02:50:49;18.50;99.90
46117;DHT22;32591;48.102;11.772;2023-07-13T02:53:16;18.50;99.90
46117;DHT22;32591;48.102;11.772;2023-07-13T02:55:43;18.60;99.90
46117;DHT22;32591;48.102;11.772;2023-07-13T02:58:12;18.60;99.90
46117;DHT22;32591;48.102;11.772;2023-07-13T03:00:42;18.60;99.90
46117;DHT22;32591;48.102;11.772;2023-07-13T03:03:09;18.70;99.90
46117;DHT22;32591;48.102;11.772;2023-07-13T03:05:41;18.70;99.90
46117;DHT22;32591;48.102;11.772;2023-07-13T03:08:08;18.60;99.90
46117;DHT22;32591;48.102;11.772;2023-07-13T03:10:36;18.50;99.90
46117;DHT22;32591;48.102;11.772;2023-07-13T03:13:03;18.50;99.90
46117;DHT22;32591;48.102;11.772;2023-07-13T03:15:30;18.50;99.90
46117;DHT22;32591;48.102;11.772;2023-07-13T03:17:57;18.50;99.90
46117;DHT22;32591;48.102;11.772;2023-07-13T03:20:24;18.40;99.90
46117;DHT22;32591;48.102;11.772;2023-07-13T03:22:53;18.30;99.90
46117;DHT22;32591;48.102;11.772;2023-07-13T03:25:19;18.20;99.90
46117;DHT22;32591;48.102;11.772;2023-07-13T03:27:46;18.20;99.90
46117;DHT22;32591;48.102;11.772;2023-07-13T03:30:13;18.10;99.90
46117;DHT22;32591;48.102;11.772;2023-07-13T03:32:40;18.10;99.90
46117;DHT22;32591;48.102;11.772;2023-07-13T03:35:08;18.20;99.90
46117;DHT22;32591;48.102;11.772;2023-07-13T03:37:36;18.20;99.90
46117;DHT22;32591;48.102;11.772;2023-07-13T03:40:10;18.20;99.90
46117;DHT22;32591;48.102;11.772;2023-07-13T03:42:38;18.20;99.90
46117;DHT22;32591;48.102;11.772;2023-07-13T03:45:06;18.20;99.90
46117;DHT22;32591;48.102;11.772;2023-07-13T03:47:33;18.10;99.90
46117;DHT22;32591;48.102;11.772;2023-07-13T03:50:01;17.90;99.90
46117;DHT22;32591;48.102;11.772;2023-07-13T03:52:29;17.90;99.90
46117;DHT22;32591;48.102;11.772;2023-07-13T03:54:56;17.80;99.90
46117;DHT22;32591;48.102;11.772;2023-07-13T03:57:24;17.60;99.90
46117;DHT22;32591;48.102;11.772;2023-07-13T03:59:52;17.60;99.90
46117;DHT22;32591;48.102;11.772;2023-07-13T04:02:20;17.60;99.90
46117;DHT22;32591;48.102;11.772;2023-07-13T04:04:47;17.60;99.90
46117;DHT22;32591;48.102;11.772;2023-07-13T04:07:14;17.70;99.90
46117;DHT22;32591;48.102;11.772;2023-07-13T04:09:41;17.60;99.90
46117;DHT22;32591;48.102;11.772;2023-07-13T04:12:08;17.60;99.90
46117;DHT22;32591;48.102;11.772;2023-07-13T04:14:37;17.60;99.90
46117;DHT22;32591;48.102;11.772;2023-07-13T04:17:05;17.70;99.90
46117;DHT22;32591;48.102;11.772;2023-07-13T04:19:32;17.50;99.90
46117;DHT22;32591;48.102;11.772;2023-07-13T04:21:59;17.60;99.90
46117;DHT22;32591;48.102;11.772;2023-07-13T04:24:26;17.60;99.90
46117;DHT22;32591;48.102;11.772;2023-07-13T04:26:53;17.60;99.90
46117;DHT22;32591;48.102;11.772;2023-07-13T04:29:20;17.60;99.90
46117;DHT22;32591;48.102;11.772;2023-07-13T04:31:48;17.60;99.90
46117;DHT22;32591;48.102;11.772;2023-07-13T04:34:15;17.60;99.90
46117;DHT22;32591;48.102;11.772;2023-07-13T04:36:42;17.60;99.90
46117;DHT22;32591;48.102;11.772;2023-07-13T04:39:09;17.60;99.90
46117;DHT22;32591;48.102;11.772;2023-07-13T04:41:36;17.70;99.90
46117;DHT22;32591;48.102;11.772;2023-07-13T04:44:03;17.70;99.90
46117;DHT22;32591;48.102;11.772;2023-07-13T04:46:31;17.70;99.90
46117;DHT22;32591;48.102;11.772;2023-07-13T04:48:59;17.70;99.90
46117;DHT22;32591;48.102;11.772;2023-07-13T04:51:26;17.70;99.90
46117;DHT22;32591;48.102;11.772;2023-07-13T04:53:53;17.70;99.90
46117;DHT22;32591;48.102;11.772;2023-07-13T04:56:20;17.80;99.90
46117;DHT22;32591;48.102;11.772;2023-07-13T04:58:47;17.80;99.90
46117;DHT22;32591;48.102;11.772;2023-07-13T05:01:14;17.80;99.90
46117;DHT22;32591;48.102;11.772;2023-07-13T05:03:41;17.80;99.90
46117;DHT22;32591;48.102;11.772;2023-07-13T05:06:09;17.90;99.90
46117;DHT22;32591;48.102;11.772;2023-07-13T05:08:36;17.80;99.90
46117;DHT22;32591;48.102;11.772;2023-07-13T05:11:04;17.80;99.90
46117;DHT22;32591;48.102;11.772;2023-07-13T05:13:32;17.80;99.90
46117;DHT22;32591;48.102;11.772;2023-07-13T05:16:01;17.80;99.90
46117;DHT22;32591;48.102;11.772;2023-07-13T05:18:31;17.80;99.90
46117;DHT22;32591;48.102;11.772;2023-07-13T05:20:59;17.70;99.90
46117;DHT22;32591;48.102;11.772;2023-07-13T05:23:29;17.80;99.90
46117;DHT22;32591;48.102;11.772;2023-07-13T05:25:57;17.80;99.90
46117;DHT22;32591;48.102;11.772;2023-07-13T05:28:24;17.80;99.90
46117;DHT22;32591;48.102;11.772;2023-07-13T05:30:52;17.80;99.90
46117;DHT22;32591;48.102;11.772;2023-07-13T05:33:20;17.80;99.90
46117;DHT22;32591;48.102;11.772;2023-07-13T05:35:47;17.70;99.90
46117;DHT22;32591;48.102;11.772;2023-07-13T05:38:14;17.60;99.90
46117;DHT22;32591;48.102;11.772;2023-07-13T05:40:44;17.70;99.90
46117;DHT22;32591;48.102;11.772;2023-07-13T05:43:11;17.70;99.90
46117;DHT22;32591;48.102;11.772;2023-07-13T05:45:39;17.80;99.90
46117;DHT22;32591;48.102;11.772;2023-07-13T05:48:06;17.80;99.90
46117;DHT22;32591;48.102;11.772;2023-07-13T05:50:33;17.80;99.90
46117;DHT22;32591;48.102;11.772;2023-07-13T05:53:00;17.80;99.90
46117;DHT22;32591;48.102;11.772;2023-07-13T05:55:27;17.80;99.90
46117;DHT22;32591;48.102;11.772;2023-07-13T05:57:55;17.80;99.90
46117;DHT22;32591;48.102;11.772;2023-07-13T06:00:23;17.80;99.90
46117;DHT22;32591;48.102;11.772;2023-07-13T06:02:51;17.80;99.90
46117;DHT22;32591;48.102;11.772;2023-07-13T06:05:18;17.90;99.90
46117;DHT22;32591;48.102;11.772;2023-07-13T06:07:45;17.80;99.90
46117;DHT22;32591;48.102;11.772;2023-07-13T06:10:12;17.80;99.90
46117;DHT22;32591;48.102;11.772;2023-07-13T06:12:39;17.90;99.90
46117;DHT22;32591;48.102;11.772;2023-07-13T06:15:08;18.00;99.90
46117;DHT22;32591;48.102;11.772;2023-07-13T06:17:35;18.10;99.90
46117;DHT22;32591;48.102;11.772;2023-07-13T06:20:03;18.10;99.90
46117;DHT22;32591;48.102;11.772;2023-07-13T06:22:31;18.10;99.90
46117;DHT22;32591;48.102;11.772;2023-07-13T06:24:58;18.10;99.90
46117;DHT22;32591;48.102;11.772;2023-07-13T06:27:24;18.20;99.90
46117;DHT22;32591;48.102;11.772;2023-07-13T06:29:51;18.20;99.90
46117;DHT22;32591;48.102;11.772;2023-07-13T06:32:20;18.20;99.90
46117;DHT22;32591;48.102;11.772;2023-07-13T06:34:47;18.20;99.90
46117;DHT22;32591;48.102;11.772;2023-07-13T06:37:14;18.40;99.90
46117;DHT22;32591;48.102;11.772;2023-07-13T06:39:41;18.50;99.90
46117;DHT22;32591;48.102;11.772;2023-07-13T06:42:08;18.50;99.90
46117;DHT22;32591;48.102;11.772;2023-07-13T06:44:35;18.50;99.90
46117;DHT22;32591;48.102;11.772;2023-07-13T06:47:02;18.50;99.90
46117;DHT22;32591;48.102;11.772;2023-07-13T06:49:31;18.40;99.90
46117;DHT22;32591;48.102;11.772;2023-07-13T06:51:58;18.40;99.90
46117;DHT22;32591;48.102;11.772;2023-07-13T06:54:25;18.30;99.90
46117;DHT22;32591;48.102;11.772;2023-07-13T06:56:52;18.40;99.90
46117;DHT22;32591;48.102;11.772;2023-07-13T06:59:19;18.50;99.90
46117;DHT22;32591;48.102;11.772;2023-07-13T07:01:46;18.70;99.90
46117;DHT22;32591;48.102;11.772;2023-07-13T07:04:13;18.90;99.90
46117;DHT22;32591;48.102;11.772;2023-07-13T07:06:41;18.80;99.90
46117;DHT22;32591;48.102;11.772;2023-07-13T07:09:08;18.70;99.90
46117;DHT22;32591;48.102;11.772;2023-07-13T07:11:35;18.70;99.90
46117;DHT22;32591;48.102;11.772;2023-07-13T07:14:02;18.70;99.90
46117;DHT22;32591;48.102;11.772;2023-07-13T07:16:29;18.70;99.90
46117;DHT22;32591;48.102;11.772;2023-07-13T07:18:56;18.70;99.90
46117;DHT22;32591;48.102;11.772;2023-07-13T07:21:23;18.70;99.90
46117;DHT22;32591;48.102;11.772;2023-07-13T07:23:53;18.80;99.90
46117;DHT22;32591;48.102;11.772;2023-07-13T07:26:20;18.90;99.90
46117;DHT22;32591;48.102;11.772;2023-07-13T07:28:47;19.00;99.90
46117;DHT22;32591;48.102;11.772;2023-07-13T07:31:14;19.10;99.90
46117;DHT22;32591;48.102;11.772;2023-07-13T07:33:41;19.20;99.90
46117;DHT22;32591;48.102;11.772;2023-07-13T07:36:08;19.20;99.90
46117;DHT22;32591;48.102;11.772;2023-07-13T07:38:35;19.20;99.90
46117;DHT22;32591;48.102;11.772;2023-07-13T07:41:05;19.30;99.90
46117;DHT22;32591;48.102;11.772;2023-07-13T07:43:31;19.30;99.90
46117;DHT22;32591;48.102;11.772;2023-07-13T07:45:59;19.10;99.90
46117;DHT22;32591;48.102;11.772;2023-07-13T07:48:26;19.00;99.90
46117;DHT22;32591;48.102;11.772;2023-07-13T07:50:53;19.00;99.90
46117;DHT22;32591;48.102;11.772;2023-07-13T07:53:20;18.80;99.90
46117;DHT22;32591;48.102;11.772;2023-07-13T07:55:47;18.90;99.90
46117;DHT22;32591;48.102;11.772;2023-07-13T07:58:15;19.00;99.90
46117;DHT22;32591;48.102;11.772;2023-07-13T08:00:42;19.00;99.90
46117;DHT22;32591;48.102;11.772;2023-07-13T08:03:09;19.00;99.90
46117;DHT22;32591;48.102;11.772;2023-07-13T08:05:36;19.00;99.90
46117;DHT22;32591;48.102;11.772;2023-07-13T08:08:03;18.90;99.90
46117;DHT22;32591;48.102;11.772;2023-07-13T08:10:31;18.90;99.90
46117;DHT22;32591;48.102;11.772;2023-07-13T08:12:58;18.80;99.90
46117;DHT22;32591;48.102;11.772;2023-07-13T08:15:26;18.70;99.90
46117;DHT22;32591;48.102;11.772;2023-07-13T08:17:53;18.70;99.90
46117;DHT22;32591;48.102;11.772;2023-07-13T08:20:20;18.60;99.90
46117;DHT22;32591;48.102;11.772;2023-07-13T08:22:47;18.60;99.90
46117;DHT22;32591;48.102;11.772;2023-07-13T08:25:14;18.60;99.90
46117;DHT22;32591;48.102;11.772;2023-07-13T08:27:41;18.60;99.90
46117;DHT22;32591;48.102;11.772;2023-07-13T08:30:09;18.60;99.90
46117;DHT22;32591;48.102;11.772;2023-07-13T08:32:38;18.50;99.90
46117;DHT22;32591;48.102;11.772;2023-07-13T08:35:06;18.60;99.90
46117;DHT22;32591;48.102;11.772;2023-07-13T08:37:33;18.50;99.90
46117;DHT22;32591;48.102;11.772;2023-07-13T08:40:00;18.60;99.90
46117;DHT22;32591;48.102;11.772;2023-07-13T08:42:35;18.60;99.90
46117;DHT22;32591;48.102;11.772;2023-07-13T08:45:08;18.60;99.90
46117;DHT22;32591;48.102;11.772;2023-07-13T08:47:47;18.60;99.90
46117;DHT22;32591;48.102;11.772;2023-07-13T08:50:18;18.60;99.90
46117;DHT22;32591;48.102;11.772;2023-07-13T08:52:47;18.70;99.90
46117;DHT22;32591;48.102;11.772;2023-07-13T08:55:17;18.70;99.90
46117;DHT22;32591;48.102;11.772;2023-07-13T08:57:48;18.80;99.90
46117;DHT22;32591;48.102;11.772;2023-07-13T09:00:19;18.80;99.90
46117;DHT22;32591;48.102;11.772;2023-07-13T09:02:54;18.80;99.90
46117;DHT22;32591;48.102;11.772;2023-07-13T09:05:29;18.90;99.90
46117;DHT22;32591;48.102;11.772;2023-07-13T09:08:09;18.80;99.90
46117;DHT22;32591;48.102;11.772;2023-07-13T09:10:45;18.60;99.90
46117;DHT22;32591;48.102;11.772;2023-07-13T09:13:23;18.40;99.90
46117;DHT22;32591;48.102;11.772;2023-07-13T09:15:54;18.40;99.90
46117;DHT22;32591;48.102;11.772;2023-07-13T09:18:27;18.40;99.90
46117;DHT22;32591;48.102;11.772;2023-07-13T09:20:58;18.50;99.90
46117;DHT22;32591;48.102;11.772;2023-07-13T09:23:29;18.50;99.90
46117;DHT22;32591;48.102;11.772;2023-07-13T09:26:02;18.50;99.90
46117;DHT22;32591;48.102;11.772;2023-07-13T09:28:35;18.20;99.90
46117;DHT22;32591;48.102;11.772;2023-07-13T09:31:09;18.20;99.90
46117;DHT22;32591;48.102;11.772;2023-07-13T09:33:40;18.30;99.90
46117;DHT22;32591;48.102;11.772;2023-07-13T09:36:20;18.40;99.90
46117;DHT22;32591;48.102;11.772;2023-07-13T09:38:58;18.50;99.90
46117;DHT22;32591;48.102;11.772;2023-07-13T09:41:39;18.70;99.90
46117;DHT22;32591;48.102;11.772;2023-07-13T09:44:11;18.80;99.90
46117;DHT22;32591;48.102;11.772;2023-07-13T09:46:44;18.90;99.90
46117;DHT22;32591;48.102;11.772;2023-07-13T09:49:14;18.90;99.90
46117;DHT22;32591;48.102;11.772;2023-07-13T09:51:42;18.90;99.90
46117;DHT22;32591;48.102;11.772;2023-07-13T09:54:18;19.00;99.90
46117;DHT22;32591;48.102;11.772;2023-07-13T09:56:46;19.10;99.90
46117;DHT22;32591;48.102;11.772;2023-07-13T09:59:19;19.10;99.90
46117;DHT22;32591;48.102;11.772;2023-07-13T10:01:47;19.20;99.90
46117;DHT22;32591;48.102;11.772;2023-07-13T10:04:18;19.30;99.90
46117;DHT22;32591;48.102;11.772;2023-07-13T10:06:46;19.30;99.90
46117;DHT22;32591;48.102;11.772;2023-07-13T10:09:15;19.30;99.90
46117;DHT22;32591;48.102;11.772;2023-07-13T10:11:44;19.30;99.90
46117;DHT22;32591;48.102;11.772;2023-07-13T10:14:15;19.30;99.90
46117;DHT22;32591;48.102;11.772;2023-07-13T10:16:44;19.10;99.90
46117;DHT22;32591;48.102;11.772;2023-07-13T10:19:14;19.20;99.90
46117;DHT22;32591;48.102;11.772;2023-07-13T10:21:50;19.20;99.90
46117;DHT22;32591;48.102;11.772;2023-07-13T10:24:23;19.30;99.90
46117;DHT22;32591;48.102;11.772;2023-07-13T10:26:56;19.50;99.90
46117;DHT22;32591;48.102;11.772;2023-07-13T10:29:29;19.60;99.90
46117;DHT22;32591;48.102;11.772;2023-07-13T10:32:07;19.80;99.90
46117;DHT22;32591;48.102;11.772;2023-07-13T10:34:37;20.00;99.90
46117;DHT22;32591;48.102;11.772;2023-07-13T10:37:06;20.20;99.90
46117;DHT22;32591;48.102;11.772;2023-07-13T10:39:35;20.30;99.90
46117;DHT22;32591;48.102;11.772;2023-07-13T10:42:06;20.40;99.90
46117;DHT22;32591;48.102;11.772;2023-07-13T10:44:38;20.60;99.90
46117;DHT22;32591;48.102;11.772;2023-07-13T10:47:08;20.80;99.90
46117;DHT22;32591;48.102;11.772;2023-07-13T10:49:42;20.90;99.90
46117;DHT22;32591;48.102;11.772;2023-07-13T10:52:43;21.00;99.90
46117;DHT22;32591;48.102;11.772;2023-07-13T10:55:32;21.20;99.90
46117;DHT22;32591;48.102;11.772;2023-07-13T10:58:03;21.40;99.90
46117;DHT22;32591;48.102;11.772;2023-07-13T11:00:46;21.60;99.90
46117;DHT22;32591;48.102;11.772;2023-07-13T11:03:17;21.70;99.90
46117;DHT22;32591;48.102;11.772;2023-07-13T11:05:50;21.70;99.90
46117;DHT22;32591;48.102;11.772;2023-07-13T11:08:24;21.70;99.90
46117;DHT22;32591;48.102;11.772;2023-07-13T11:10:59;21.80;99.90
46117;DHT22;32591;48.102;11.772;2023-07-13T11:13:38;21.80;99.90
46117;DHT22;32591;48.102;11.772;2023-07-13T11:16:43;22.00;99.90
46117;DHT22;32591;48.102;11.772;2023-07-13T11:19:38;21.90;99.90
46117;DHT22;32591;48.102;11.772;2023-07-13T11:22:21;21.90;99.90
46117;DHT22;32591;48.102;11.772;2023-07-13T11:25:01;22.20;99.90
46117;DHT22;32591;48.102;11.772;2023-07-13T11:27:39;22.30;99.90
46117;DHT22;32591;48.102;11.772;2023-07-13T11:30:34;22.40;99.90
46117;DHT22;32591;48.102;11.772;2023-07-13T11:33:15;22.30;99.90
46117;DHT22;32591;48.102;11.772;2023-07-13T11:35:52;22.20;99.90
46117;DHT22;32591;48.102;11.772;2023-07-13T11:38:33;22.00;99.90
46117;DHT22;32591;48.102;11.772;2023-07-13T11:41:04;22.20;99.90
46117;DHT22;32591;48.102;11.772;2023-07-13T11:43:33;22.30;99.90
46117;DHT22;32591;48.102;11.772;2023-07-13T11:46:14;22.40;99.90
46117;DHT22;32591;48.102;11.772;2023-07-13T11:48:45;22.80;99.90
46117;DHT22;32591;48.102;11.772;2023-07-13T11:51:19;22.80;99.90
46117;DHT22;32591;48.102;11.772;2023-07-13T11:53:51;23.10;99.90
46117;DHT22;32591;48.102;11.772;2023-07-13T11:56:20;23.10;99.20
46117;DHT22;32591;48.102;11.772;2023-07-13T11:58:50;22.80;99.60
46117;DHT22;32591;48.102;11.772;2023-07-13T12:01:22;22.80;99.40
46117;DHT22;32591;48.102;11.772;2023-07-13T12:03:50;22.70;99.70
46117;DHT22;32591;48.102;11.772;2023-07-13T12:06:27;22.70;99.40
46117;DHT22;32591;48.102;11.772;2023-07-13T12:09:01;23.00;99.90
46117;DHT22;32591;48.102;11.772;2023-07-13T12:11:34;23.40;99.90
46117;DHT22;32591;48.102;11.772;2023-07-13T12:14:02;23.60;99.20
46117;DHT22;32591;48.102;11.772;2023-07-13T12:16:31;23.60;99.50
46117;DHT22;32591;48.102;11.772;2023-07-13T12:19:00;23.50;98.00
46117;DHT22;32591;48.102;11.772;2023-07-13T12:21:33;23.60;98.30
46117;DHT22;32591;48.102;11.772;2023-07-13T12:24:11;23.80;96.50
46117;DHT22;32591;48.102;11.772;2023-07-13T12:26:42;23.90;96.70
46117;DHT22;32591;48.102;11.772;2023-07-13T12:29:16;24.20;95.20
46117;DHT22;32591;48.102;11.772;2023-07-13T12:31:46;24.40;94.40
46117;DHT22;32591;48.102;11.772;2023-07-13T12:34:15;24.50;93.90
46117;DHT22;32591;48.102;11.772;2023-07-13T12:36:47;24.70;93.00
46117;DHT22;32591;48.102;11.772;2023-07-13T12:39:19;24.50;93.40
46117;DHT22;32591;48.102;11.772;2023-07-13T12:41:49;24.50;93.70
46117;DHT22;32591;48.102;11.772;2023-07-13T12:44:25;24.70;93.90
46117;DHT22;32591;48.102;11.772;2023-07-13T12:46:57;24.70;93.80
46117;DHT22;32591;48.102;11.772;2023-07-13T12:49:29;24.50;92.10
46117;DHT22;32591;48.102;11.772;2023-07-13T12:52:00;24.20;91.70
46117;DHT22;32591;48.102;11.772;2023-07-13T12:54:31;24.00;92.40
46117;DHT22;32591;48.102;11.772;2023-07-13T12:56:59;23.70;92.80
46117;DHT22;32591;48.102;11.772;2023-07-13T12:59:31;23.90;93.70
46117;DHT22;32591;48.102;11.772;2023-07-13T13:02:07;24.30;92.60
46117;DHT22;32591;48.102;11.772;2023-07-13T13:04:49;24.20;92.10
46117;DHT22;32591;48.102;11.772;2023-07-13T13:07:16;24.10;93.30
46117;DHT22;32591;48.102;11.772;2023-07-13T13:09:47;24.10;93.10
46117;DHT22;32591;48.102;11.772;2023-07-13T13:12:14;24.00;92.30
46117;DHT22;32591;48.102;11.772;2023-07-13T13:14:42;24.00;92.50
46117;DHT22;32591;48.102;11.772;2023-07-13T13:17:18;23.80;92.30
46117;DHT22;32591;48.102;11.772;2023-07-13T13:19:47;23.90;92.20
46117;DHT22;32591;48.102;11.772;2023-07-13T13:22:13;24.20;92.90
46117;DHT22;32591;48.102;11.772;2023-07-13T13:24:40;24.60;91.70
46117;DHT22;32591;48.102;11.772;2023-07-13T13:27:15;24.60;91.10
46117;DHT22;32591;48.102;11.772;2023-07-13T13:29:45;24.80;91.40
46117;DHT22;32591;48.102;11.772;2023-07-13T13:32:14;25.10;90.80
46117;DHT22;32591;48.102;11.772;2023-07-13T13:34:41;24.90;90.80
46117;DHT22;32591;48.102;11.772;2023-07-13T13:37:17;24.80;90.40
46117;DHT22;32591;48.102;11.772;2023-07-13T13:39:45;24.80;90.60
46117;DHT22;32591;48.102;11.772;2023-07-13T13:42:14;24.80;90.30
46117;DHT22;32591;48.102;11.772;2023-07-13T13:44:41;25.20;91.10
46117;DHT22;32591;48.102;11.772;2023-07-13T13:47:21;25.40;90.50
46117;DHT22;32591;48.102;11.772;2023-07-13T13:49:54;25.00;89.30
46117;DHT22;32591;48.102;11.772;2023-07-13T13:52:21;24.70;90.50
46117;DHT22;32591;48.102;11.772;2023-07-13T13:54:48;24.40;91.10
46117;DHT22;32591;48.102;11.772;2023-07-13T13:57:16;24.20;91.00
46117;DHT22;32591;48.102;11.772;2023-07-13T13:59:43;23.90;91.80
46117;DHT22;32591;48.102;11.772;2023-07-13T14:02:22;23.70;91.20
46117;DHT22;32591;48.102;11.772;2023-07-13T14:04:54;23.40;91.90
46117;DHT22;32591;48.102;11.772;2023-07-13T14:07:23;23.30;92.30
46117;DHT22;32591;48.102;11.772;2023-07-13T14:09:52;23.30;92.60
46117;DHT22;32591;48.102;11.772;2023-07-13T14:12:21;23.40;92.60
46117;DHT22;32591;48.102;11.772;2023-07-13T14:14:50;23.30;92.00
46117;DHT22;32591;48.102;11.772;2023-07-13T14:17:22;23.20;92.30
46117;DHT22;32591;48.102;11.772;2023-07-13T14:19:52;23.10;92.60
46117;DHT22;32591;48.102;11.772;2023-07-13T14:22:23;23.00;93.30
46117;DHT22;32591;48.102;11.772;2023-07-13T14:24:52;23.10;92.60
46117;DHT22;32591;48.102;11.772;2023-07-13T14:27:20;23.30;93.00
46117;DHT22;32591;48.102;11.772;2023-07-13T14:29:48;23.50;92.60
46117;DHT22;32591;48.102;11.772;2023-07-13T14:32:16;23.30;92.20
46117;DHT22;32591;48.102;11.772;2023-07-13T14:34:43;23.30;92.50
46117;DHT22;32591;48.102;11.772;2023-07-13T14:37:13;23.30;93.00
46117;DHT22;32591;48.102;11.772;2023-07-13T14:39:43;23.40;92.50
46117;DHT22;32591;48.102;11.772;2023-07-13T14:42:11;23.40;91.80
46117;DHT22;32591;48.102;11.772;2023-07-13T14:44:39;23.60;92.00
46117;DHT22;32591;48.102;11.772;2023-07-13T14:47:07;23.60;91.70
46117;DHT22;32591;48.102;11.772;2023-07-13T14:49:36;24.00;90.50
46117;DHT22;32591;48.102;11.772;2023-07-13T14:52:10;24.50;90.30
46117;DHT22;32591;48.102;11.772;2023-07-13T14:54:39;24.90;90.60
46117;DHT22;32591;48.102;11.772;2023-07-13T14:57:10;25.40;88.40
46117;DHT22;32591;48.102;11.772;2023-07-13T14:59:38;25.30;87.80
46117;DHT22;32591;48.102;11.772;2023-07-13T15:02:17;25.50;88.70
46117;DHT22;32591;48.102;11.772;2023-07-13T15:04:46;25.70;85.90
46117;DHT22;32591;48.102;11.772;2023-07-13T15:07:13;25.70;85.00
46117;DHT22;32591;48.102;11.772;2023-07-13T15:09:41;25.60;86.10
46117;DHT22;32591;48.102;11.772;2023-07-13T15:12:08;25.40;85.80
46117;DHT22;32591;48.102;11.772;2023-07-13T15:14:36;25.10;87.50
46117;DHT22;32591;48.102;11.772;2023-07-13T15:17:08;25.00;87.30
46117;DHT22;32591;48.102;11.772;2023-07-13T15:19:45;25.20;87.00
46117;DHT22;32591;48.102;11.772;2023-07-13T15:22:13;25.80;86.20
46117;DHT22;32591;48.102;11.772;2023-07-13T15:24:40;26.20;84.50
46117;DHT22;32591;48.102;11.772;2023-07-13T15:27:10;26.10;82.30
46117;DHT22;32591;48.102;11.772;2023-07-13T15:29:38;25.80;82.70
46117;DHT22;32591;48.102;11.772;2023-07-13T15:32:12;25.70;80.90